createdAt,value
2017-05-28T00:00:34.843Z,48.69
2017-05-28T00:01:36.299Z,48.79
2017-05-28T00:02:37.731Z,48.11
2017-05-28T00:03:39.178Z,48.59
2017-05-28T00:04:40.645Z,48.32
2017-05-28T00:05:42.061Z,49.37
2017-05-28T00:06:43.490Z,49.55
2017-05-28T00:07:44.907Z,48.79
2017-05-28T00:08:46.331Z,48.49
2017-05-28T00:09:47.770Z,48.11
2017-05-28T00:10:49.192Z,48.69
2017-05-28T00:11:50.630Z,48.39
2017-05-28T00:12:52.054Z,48.39
2017-05-28T00:13:53.490Z,48.59
2017-05-28T00:14:54.915Z,49.07
2017-05-28T00:15:56.381Z,49.37
2017-05-28T00:16:57.827Z,49.27
2017-05-28T00:17:59.275Z,48.69
2017-05-28T00:19:00.686Z,48.79
2017-05-28T00:20:02.107Z,49.65
2017-05-28T00:21:03.542Z,48.79
2017-05-28T00:22:04.970Z,48.88
2017-05-28T00:23:06.457Z,48.30
2017-05-28T00:24:07.894Z,49.75
2017-05-28T00:25:09.337Z,49.46
2017-05-28T00:26:10.801Z,48.49
2017-05-28T00:27:12.238Z,48.21
2017-05-28T00:28:13.653Z,48.97
2017-05-28T00:29:15.083Z,49.65
2017-05-28T00:30:16.524Z,48.79
2017-05-28T00:31:17.954Z,48.69
2017-05-28T00:32:19.376Z,48.97
2017-05-28T00:33:20.821Z,48.97
2017-05-28T00:34:22.252Z,48.88
2017-05-28T00:35:23.671Z,49.85
2017-05-28T00:36:25.087Z,49.46
2017-05-28T00:37:26.511Z,49.65
2017-05-28T00:38:27.976Z,49.65
2017-05-28T00:39:29.414Z,49.55
2017-05-28T00:40:30.832Z,49.37
2017-05-28T00:41:32.255Z,49.27
2017-05-28T00:42:33.693Z,49.55
2017-05-28T00:43:35.108Z,49.46
2017-05-28T00:44:36.531Z,48.88
2017-05-28T00:45:37.963Z,49.17
2017-05-28T00:46:39.396Z,49.46
2017-05-28T00:47:40.848Z,48.69
2017-05-28T00:48:42.290Z,49.17
2017-05-28T00:49:43.716Z,49.17
2017-05-28T00:50:45.159Z,48.79
2017-05-28T00:51:46.605Z,49.65
2017-05-28T00:52:48.040Z,49.46
2017-05-28T00:53:49.465Z,49.75
2017-05-28T00:54:50.909Z,49.46
2017-05-28T00:55:52.349Z,49.27
2017-05-28T00:56:53.775Z,49.27
2017-05-28T00:57:55.234Z,49.17
2017-05-28T00:58:56.652Z,49.27
2017-05-28T00:59:58.123Z,49.27
2017-05-28T01:00:59.565Z,49.37
2017-05-28T01:02:01.014Z,49.55
2017-05-28T01:03:02.440Z,49.37
2017-05-28T01:04:03.898Z,49.17
2017-05-28T01:05:05.324Z,49.46
2017-05-28T01:06:06.750Z,49.75
2017-05-28T01:07:08.197Z,49.55
2017-05-28T01:08:09.633Z,50.33
2017-05-28T01:09:11.041Z,49.75
2017-05-28T01:10:12.480Z,49.46
2017-05-28T01:11:13.947Z,50.52
2017-05-28T01:12:15.388Z,50.13
2017-05-28T01:13:16.812Z,49.95
2017-05-28T01:14:18.250Z,50.13
2017-05-28T01:15:19.683Z,49.65
2017-05-28T01:16:21.104Z,50.33
2017-05-28T01:17:22.541Z,50.23
2017-05-28T01:18:23.963Z,50.23
2017-05-28T01:19:25.395Z,50.71
2017-05-28T01:20:26.829Z,50.52
2017-05-28T01:21:28.267Z,50.52
2017-05-28T01:22:29.712Z,51.01
2017-05-28T01:23:31.137Z,50.04
2017-05-28T01:24:32.552Z,50.62
2017-05-28T01:25:33.972Z,50.33
2017-05-28T01:26:35.396Z,50.91
2017-05-28T01:27:36.856Z,50.43
2017-05-28T01:28:38.296Z,50.62
2017-05-28T01:29:39.745Z,50.71
2017-05-28T01:30:41.179Z,50.91
2017-05-28T01:31:42.615Z,50.91
2017-05-28T01:32:44.030Z,50.62
2017-05-28T01:33:45.470Z,50.91
2017-05-28T01:34:46.892Z,50.89
2017-05-28T01:35:48.328Z,51.68
2017-05-28T01:36:49.751Z,51.01
2017-05-28T01:37:51.187Z,51.59
2017-05-28T01:38:52.628Z,51.68
2017-05-28T01:39:54.083Z,51.59
2017-05-28T01:40:55.532Z,50.91
2017-05-28T01:41:56.963Z,51.87
2017-05-28T01:42:58.487Z,51.68
2017-05-28T01:43:59.946Z,51.59
2017-05-28T01:45:01.418Z,51.20
2017-05-28T01:46:02.880Z,51.68
2017-05-28T01:47:04.317Z,51.49
2017-05-28T01:48:05.748Z,51.59
2017-05-28T01:49:07.192Z,51.68
2017-05-28T01:50:08.635Z,51.78
2017-05-28T01:51:10.077Z,51.59
2017-05-28T01:52:11.519Z,51.97
2017-05-28T01:53:12.972Z,51.39
2017-05-28T01:54:14.416Z,51.59
2017-05-28T01:55:15.833Z,51.97
2017-05-28T01:56:17.288Z,51.95
2017-05-28T01:57:18.710Z,51.75
2017-05-28T01:58:20.148Z,51.68
2017-05-28T01:59:21.613Z,51.68
2017-05-28T02:00:23.075Z,51.87
2017-05-28T02:01:24.485Z,51.68
2017-05-28T02:02:25.954Z,51.68
2017-05-28T02:03:27.391Z,51.56
2017-05-28T02:04:28.817Z,51.85
2017-05-28T02:05:30.244Z,51.85
2017-05-28T02:06:31.684Z,51.68
2017-05-28T02:07:33.115Z,51.39
2017-05-28T02:08:34.598Z,51.68
2017-05-28T02:09:36.048Z,51.75
2017-05-28T02:10:37.526Z,51.87
2017-05-28T02:11:38.917Z,51.65
2017-05-28T02:12:40.421Z,51.95
2017-05-28T02:13:41.849Z,51.68
2017-05-28T02:14:43.314Z,51.85
2017-05-28T02:15:44.766Z,51.68
2017-05-28T02:16:46.193Z,51.87
2017-05-28T02:17:47.679Z,51.95
2017-05-28T02:18:49.122Z,51.56
2017-05-28T02:19:50.591Z,51.85
2017-05-28T02:20:52.019Z,51.46
2017-05-28T02:21:53.442Z,51.46
2017-05-28T02:22:54.880Z,51.68
2017-05-28T02:23:56.359Z,51.85
2017-05-28T02:24:57.786Z,51.37
2017-05-28T02:25:59.255Z,51.78
2017-05-28T02:27:00.681Z,51.65
2017-05-28T02:28:02.154Z,51.68
2017-05-28T02:29:03.603Z,51.78
2017-05-28T02:30:05.022Z,51.65
2017-05-28T02:31:06.510Z,51.78
2017-05-28T02:32:07.897Z,51.75
2017-05-28T02:33:09.369Z,51.29
2017-05-28T02:34:10.803Z,51.68
2017-05-28T02:35:12.231Z,51.37
2017-05-28T02:36:13.639Z,51.46
2017-05-28T02:37:15.057Z,51.01
2017-05-28T02:38:16.497Z,51.07
2017-05-28T02:39:17.942Z,51.20
2017-05-28T02:40:19.391Z,51.27
2017-05-28T02:41:20.857Z,51.17
2017-05-28T02:42:22.288Z,51.27
2017-05-28T02:43:23.736Z,51.07
2017-05-28T02:44:25.178Z,51.07
2017-05-28T02:45:26.619Z,51.17
2017-05-28T02:46:28.077Z,51.17
2017-05-28T02:47:29.514Z,51.10
2017-05-28T02:48:30.974Z,51.07
2017-05-28T02:49:32.388Z,51.17
2017-05-28T02:50:33.822Z,51.17
2017-05-28T02:51:35.315Z,51.27
2017-05-28T02:52:36.782Z,51.10
2017-05-28T02:53:38.266Z,50.79
2017-05-28T02:54:39.696Z,50.79
2017-05-28T02:55:41.143Z,51.17
2017-05-28T02:56:42.584Z,50.79
2017-05-28T02:57:44.008Z,51.17
2017-05-28T02:58:45.459Z,51.17
2017-05-28T02:59:46.915Z,51.65
2017-05-28T03:00:48.323Z,51.49
2017-05-28T03:01:49.746Z,51.56
2017-05-28T03:02:51.201Z,51.85
2017-05-28T03:03:52.640Z,51.75
2017-05-28T03:04:54.063Z,51.56
2017-05-28T03:05:55.502Z,51.56
2017-05-28T03:06:56.926Z,51.95
2017-05-28T03:07:58.349Z,51.17
2017-05-28T03:08:59.783Z,51.56
2017-05-28T03:10:01.215Z,51.85
2017-05-28T03:11:02.640Z,51.85
2017-05-28T03:12:04.063Z,51.85
2017-05-28T03:13:05.513Z,51.87
2017-05-28T03:14:06.979Z,51.75
2017-05-28T03:15:08.412Z,51.59
2017-05-28T03:16:09.841Z,51.95
2017-05-28T03:17:11.320Z,51.97
2017-05-28T03:18:12.742Z,51.97
2017-05-28T03:19:14.216Z,51.85
2017-05-28T03:20:15.646Z,51.75
2017-05-28T03:21:17.080Z,51.65
2017-05-28T03:22:18.503Z,51.75
2017-05-28T03:23:19.980Z,51.85
2017-05-28T03:24:21.445Z,51.85
2017-05-28T03:25:22.877Z,51.75
2017-05-28T03:26:24.290Z,51.75
2017-05-28T03:27:25.733Z,51.85
2017-05-28T03:28:27.171Z,51.56
2017-05-28T03:29:28.619Z,51.46
2017-05-28T03:30:30.032Z,51.87
2017-05-28T03:31:31.507Z,51.85
2017-05-28T03:32:32.956Z,51.75
2017-05-28T03:33:34.374Z,52.04
2017-05-28T03:34:35.866Z,51.95
2017-05-28T03:35:37.286Z,51.87
2017-05-28T03:36:38.721Z,51.85
2017-05-28T03:37:40.166Z,51.75
2017-05-28T03:38:41.592Z,51.75
2017-05-28T03:39:43.068Z,51.78
2017-05-28T03:40:44.495Z,51.85
2017-05-28T03:41:45.973Z,51.37
2017-05-28T03:42:47.390Z,51.75
2017-05-28T03:43:48.813Z,51.56
2017-05-28T03:44:50.268Z,51.78
2017-05-28T03:45:51.749Z,51.85
2017-05-28T03:46:53.215Z,51.87
2017-05-28T03:47:54.668Z,51.65
2017-05-28T03:48:56.102Z,51.46
2017-05-28T03:49:57.524Z,51.87
2017-05-28T03:50:58.966Z,51.87
2017-05-28T03:52:00.435Z,51.78
2017-05-28T03:53:01.881Z,51.85
2017-05-28T03:54:03.328Z,51.65
2017-05-28T03:55:04.787Z,51.49
2017-05-28T03:56:06.245Z,51.85
2017-05-28T03:57:07.684Z,51.56
2017-05-28T03:58:09.131Z,51.97
2017-05-28T03:59:10.595Z,51.85
2017-05-28T04:00:12.055Z,51.56
2017-05-28T04:01:13.503Z,51.85
2017-05-28T04:02:14.921Z,51.68
2017-05-28T04:03:16.360Z,51.78
2017-05-28T04:04:17.860Z,51.85
2017-05-28T04:05:19.291Z,51.56
2017-05-28T04:06:20.731Z,51.78
2017-05-28T04:07:22.157Z,51.85
2017-05-28T04:08:23.591Z,51.85
2017-05-28T04:09:25.024Z,51.75
2017-05-28T04:10:26.477Z,51.59
2017-05-28T04:11:27.898Z,51.95
2017-05-28T04:12:29.317Z,51.46
2017-05-28T04:13:30.769Z,51.56
2017-05-28T04:14:32.212Z,51.68
2017-05-28T04:15:33.633Z,51.85
2017-05-28T04:16:35.075Z,51.37
2017-05-28T04:17:36.498Z,51.56
2017-05-28T04:18:37.972Z,51.59
2017-05-28T04:19:39.393Z,51.65
2017-05-28T04:20:40.848Z,51.78
2017-05-28T04:21:42.276Z,51.85
2017-05-28T04:22:43.699Z,51.56
2017-05-28T04:23:45.129Z,51.95
2017-05-28T04:24:46.579Z,52.07
2017-05-28T04:25:48.010Z,51.95
2017-05-28T04:26:49.430Z,51.85
2017-05-28T04:27:50.882Z,51.85
2017-05-28T04:28:52.304Z,51.49
2017-05-28T04:29:53.757Z,52.04
2017-05-28T04:30:55.202Z,51.87
2017-05-28T04:31:56.673Z,51.56
2017-05-28T04:32:58.166Z,51.49
2017-05-28T04:33:59.608Z,51.97
2017-05-28T04:35:01.046Z,51.85
2017-05-28T04:36:02.473Z,51.85
2017-05-28T04:37:03.916Z,51.97
2017-05-28T04:38:05.360Z,51.68
2017-05-28T04:39:06.837Z,51.65
2017-05-28T04:40:08.288Z,52.07
2017-05-28T04:41:09.726Z,51.46
2017-05-28T04:42:11.171Z,51.87
2017-05-28T04:43:12.605Z,51.87
2017-05-28T04:44:14.087Z,51.59
2017-05-28T04:45:15.575Z,51.87
2017-05-28T04:46:17.077Z,51.49
2017-05-28T04:47:18.521Z,51.39
2017-05-28T04:48:19.988Z,51.46
2017-05-28T04:49:21.452Z,51.49
2017-05-28T04:50:22.900Z,51.56
2017-05-28T04:51:24.337Z,51.59
2017-05-28T04:52:25.775Z,51.49
2017-05-28T04:53:27.261Z,51.75
2017-05-28T04:54:28.709Z,51.65
2017-05-28T04:55:30.174Z,51.56
2017-05-28T04:56:31.634Z,51.68
2017-05-28T04:57:33.170Z,51.49
2017-05-28T04:58:34.597Z,51.78
2017-05-28T04:59:36.020Z,51.39
2017-05-28T05:00:37.451Z,51.68
2017-05-28T05:01:38.896Z,51.27
2017-05-28T05:02:40.317Z,51.49
2017-05-28T05:03:41.742Z,51.78
2017-05-28T05:04:43.261Z,51.29
2017-05-28T05:05:44.718Z,51.68
2017-05-28T05:06:46.178Z,51.59
2017-05-28T05:07:47.636Z,51.20
2017-05-28T05:08:49.098Z,51.20
2017-05-28T05:09:50.550Z,51.68
2017-05-28T05:10:51.966Z,51.97
2017-05-28T05:11:53.440Z,51.59
2017-05-28T05:12:54.863Z,51.68
2017-05-28T05:13:56.279Z,51.97
2017-05-28T05:14:57.739Z,51.87
2017-05-28T05:15:59.173Z,51.87
2017-05-28T05:17:00.608Z,51.97
2017-05-28T05:18:02.050Z,52.26
2017-05-28T05:19:03.499Z,51.97
2017-05-28T05:20:04.930Z,51.87
2017-05-28T05:21:06.368Z,51.78
2017-05-28T05:22:07.810Z,51.68
2017-05-28T05:23:09.276Z,51.85
2017-05-28T05:24:10.720Z,51.87
2017-05-28T05:25:12.181Z,51.39
2017-05-28T05:26:13.658Z,51.87
2017-05-28T05:27:15.159Z,51.85
2017-05-28T05:28:16.610Z,51.87
2017-05-28T05:29:18.127Z,51.85
2017-05-28T05:30:19.550Z,52.26
2017-05-28T05:31:20.995Z,51.78
2017-05-28T05:32:22.468Z,51.75
2017-05-28T05:33:23.951Z,51.65
2017-05-28T05:34:25.425Z,51.56
2017-05-28T05:35:26.880Z,51.65
2017-05-28T05:36:28.349Z,51.85
2017-05-28T05:37:29.834Z,51.59
2017-05-28T05:38:31.245Z,52.33
2017-05-28T05:39:32.763Z,51.87
2017-05-28T05:40:34.343Z,51.75
2017-05-28T05:41:35.941Z,51.65
2017-05-28T05:42:37.470Z,51.59
2017-05-28T05:43:38.947Z,51.29
2017-05-28T05:44:40.652Z,51.20
2017-05-28T05:45:42.127Z,51.20
2017-05-28T05:46:43.628Z,51.29
2017-05-28T05:47:45.145Z,50.81
2017-05-28T05:48:46.739Z,51.10
2017-05-28T05:49:48.260Z,50.79
2017-05-28T05:50:49.749Z,52.07
2017-05-28T05:51:51.289Z,53.11
2017-05-28T05:52:52.912Z,55.52
2017-05-28T05:53:54.478Z,56.29
2017-05-28T05:54:55.920Z,56.84
2017-05-28T05:55:57.361Z,56.94
2017-05-28T05:56:58.949Z,57.14
2017-05-28T05:58:00.396Z,57.90
2017-05-28T05:59:02.001Z,59.16
2017-05-28T06:00:03.531Z,59.35
2017-05-28T06:01:05.597Z,59.16
2017-05-28T06:02:07.617Z,59.74
2017-05-28T06:03:09.031Z,59.55
2017-05-28T06:04:12.364Z,59.64
2017-05-28T06:05:13.813Z,61.09
2017-05-28T06:06:15.246Z,60.22
2017-05-28T06:07:16.721Z,59.93
2017-05-28T06:08:19.009Z,60.03
2017-05-28T06:09:21.387Z,60.41
2017-05-28T06:10:23.588Z,61.38
2017-05-28T06:11:28.342Z,61.16
2017-05-28T06:12:32.859Z,61.74
2017-05-28T06:13:37.831Z,62.99
2017-05-28T06:14:41.349Z,62.02
2017-05-28T06:15:45.556Z,63.28
2017-05-28T06:16:48.999Z,62.89
2017-05-28T06:17:50.886Z,61.64
2017-05-28T06:18:52.492Z,61.67
2017-05-28T06:19:55.658Z,61.38
2017-05-28T06:20:57.221Z,61.77
2017-05-28T06:21:59.727Z,61.57
2017-05-28T06:23:01.273Z,61.67
2017-05-28T06:24:02.851Z,62.02
2017-05-28T06:25:04.487Z,63.47
2017-05-28T06:26:07.566Z,62.31
2017-05-28T06:27:09.106Z,62.05
2017-05-28T06:28:10.613Z,61.77
2017-05-28T06:29:14.826Z,61.44
2017-05-28T06:30:16.323Z,61.67
2017-05-28T06:31:20.344Z,62.60
2017-05-28T06:32:24.094Z,62.89
2017-05-28T06:33:27.551Z,62.79
2017-05-28T06:34:30.155Z,62.70
2017-05-28T06:35:32.896Z,63.02
2017-05-28T06:36:34.291Z,62.73
2017-05-28T06:37:35.757Z,62.82
2017-05-28T06:38:37.427Z,62.82
2017-05-28T06:39:38.964Z,62.82
2017-05-28T06:40:43.202Z,63.60
2017-05-28T06:41:44.620Z,63.70
2017-05-28T06:42:48.801Z,64.47
2017-05-28T06:43:50.246Z,65.14
2017-05-28T06:44:51.701Z,65.98
2017-05-28T06:45:53.171Z,66.56
2017-05-28T06:46:57.124Z,65.78
2017-05-28T06:48:01.431Z,64.24
2017-05-28T06:49:05.007Z,64.24
2017-05-28T06:50:07.549Z,64.15
2017-05-28T06:51:09.330Z,65.20
2017-05-28T06:52:10.830Z,65.88
2017-05-28T06:53:14.204Z,66.27
2017-05-28T06:54:18.179Z,66.27
2017-05-28T06:55:22.377Z,65.59
2017-05-28T06:56:24.936Z,64.66
2017-05-28T06:57:26.423Z,64.37
2017-05-28T06:58:27.855Z,63.89
2017-05-28T06:59:31.798Z,63.50
2017-05-28T07:00:35.055Z,62.92
2017-05-28T07:01:36.476Z,62.92
2017-05-28T07:02:41.501Z,62.92
2017-05-28T07:03:42.905Z,63.40
2017-05-28T07:04:46.747Z,63.98
2017-05-28T07:05:50.456Z,63.73
2017-05-28T07:06:51.933Z,63.05
2017-05-28T07:07:53.435Z,61.80
2017-05-28T07:08:57.217Z,61.67
2017-05-28T07:09:59.684Z,61.60
2017-05-28T07:11:02.629Z,61.96
2017-05-28T07:12:04.136Z,60.89
2017-05-28T07:13:05.747Z,59.96
2017-05-28T07:14:07.206Z,60.44
2017-05-28T07:15:08.640Z,60.54
2017-05-28T07:16:10.077Z,60.25
2017-05-28T07:17:11.786Z,59.48
2017-05-28T07:18:13.261Z,58.77
2017-05-28T07:19:17.277Z,58.39
2017-05-28T07:20:20.798Z,58.22
2017-05-28T07:21:23.077Z,58.70
2017-05-28T07:22:25.189Z,58.42
2017-05-28T07:23:28.971Z,57.96
2017-05-28T07:24:30.878Z,57.96
2017-05-28T07:25:32.319Z,56.96
2017-05-28T07:26:33.748Z,56.68
2017-05-28T07:27:35.168Z,56.58
2017-05-28T07:28:39.293Z,58.22
2017-05-28T07:29:40.698Z,57.26
2017-05-28T07:30:43.967Z,56.68
2017-05-28T07:31:45.451Z,56.48
2017-05-28T07:32:49.913Z,57.45
2017-05-28T07:33:51.342Z,57.35
2017-05-28T07:34:53.407Z,57.96
2017-05-28T07:35:54.840Z,57.19
2017-05-28T07:36:58.542Z,56.71
2017-05-28T07:38:00.382Z,57.48
2017-05-28T07:39:02.747Z,55.71
2017-05-28T07:40:04.170Z,56.39
2017-05-28T07:41:05.609Z,56.80
2017-05-28T07:42:07.774Z,57.57
2017-05-28T07:43:09.528Z,57.19
2017-05-28T07:44:10.972Z,56.80
2017-05-28T07:45:12.418Z,55.83
2017-05-28T07:46:13.851Z,55.55
2017-05-28T07:47:15.286Z,55.65
2017-05-28T07:48:19.385Z,55.74
2017-05-28T07:49:23.488Z,56.83
2017-05-28T07:50:25.765Z,55.77
2017-05-28T07:51:28.525Z,54.93
2017-05-28T07:52:29.938Z,54.44
2017-05-28T07:53:33.990Z,53.74
2017-05-28T07:54:35.356Z,54.22
2017-05-28T07:55:36.803Z,54.29
2017-05-28T07:56:38.232Z,54.58
2017-05-28T07:57:39.653Z,55.07
2017-05-28T07:58:41.075Z,55.35
2017-05-28T07:59:43.203Z,55.93
2017-05-28T08:00:44.622Z,56.41
2017-05-28T08:01:46.154Z,55.77
2017-05-28T08:02:47.574Z,55.67
2017-05-28T08:03:49.498Z,55.07
2017-05-28T08:04:51.823Z,55.29
2017-05-28T08:05:53.254Z,56.32
2017-05-28T08:06:57.576Z,56.54
2017-05-28T08:07:58.959Z,56.63
2017-05-28T08:09:00.443Z,55.87
2017-05-28T08:10:03.599Z,55.96
2017-05-28T08:11:08.087Z,56.35
2017-05-28T08:12:09.480Z,57.63
2017-05-28T08:13:13.311Z,57.05
2017-05-28T08:14:14.753Z,57.63
2017-05-28T08:15:16.209Z,57.54
2017-05-28T08:16:17.644Z,57.24
2017-05-28T08:17:19.081Z,57.12
2017-05-28T08:18:20.506Z,57.63
2017-05-28T08:19:21.986Z,58.40
2017-05-28T08:20:23.406Z,58.70
2017-05-28T08:21:25.410Z,59.28
2017-05-28T08:22:26.828Z,59.28
2017-05-28T08:23:28.278Z,59.86
2017-05-28T08:24:29.675Z,58.31
2017-05-28T08:25:31.156Z,61.89
2017-05-28T08:26:32.602Z,58.31
2017-05-28T08:27:34.027Z,57.54
2017-05-28T08:28:35.454Z,56.95
2017-05-28T08:29:36.880Z,57.34
2017-05-28T08:30:38.333Z,56.63
2017-05-28T08:31:39.796Z,56.45
2017-05-28T08:32:41.434Z,56.73
2017-05-28T08:33:42.849Z,56.73
2017-05-28T08:34:44.276Z,56.71
2017-05-28T08:35:45.709Z,56.71
2017-05-28T08:36:47.130Z,56.80
2017-05-28T08:37:48.557Z,57.09
2017-05-28T08:38:49.984Z,56.90
2017-05-28T08:39:51.406Z,57.57
2017-05-28T08:40:52.831Z,57.09
2017-05-28T08:41:54.256Z,57.09
2017-05-28T08:42:55.677Z,57.87
2017-05-28T08:43:57.096Z,58.32
2017-05-28T08:44:58.516Z,58.42
2017-05-28T08:45:59.933Z,62.05
2017-05-28T08:47:01.367Z,65.01
2017-05-28T08:48:02.799Z,70.00
2017-05-28T08:49:04.217Z,73.58
2017-05-28T08:50:05.632Z,73.33
2017-05-28T08:51:07.109Z,70.83
2017-05-28T08:52:08.523Z,68.97
2017-05-28T08:53:09.946Z,66.94
2017-05-28T08:54:11.377Z,66.11
2017-05-28T08:55:12.794Z,65.91
2017-05-28T08:56:14.219Z,65.82
2017-05-28T08:57:15.645Z,68.04
2017-05-28T08:58:17.063Z,68.62
2017-05-28T08:59:18.484Z,68.33
2017-05-28T09:00:19.911Z,69.10
2017-05-28T09:01:21.330Z,68.52
2017-05-28T09:02:22.753Z,69.16
2017-05-28T09:03:24.165Z,69.61
2017-05-28T09:04:25.597Z,70.13
2017-05-28T09:05:27.024Z,70.76
2017-05-28T09:06:28.450Z,72.21
2017-05-28T09:07:29.871Z,72.31
2017-05-28T09:08:31.291Z,72.50
2017-05-28T09:09:32.703Z,74.45
2017-05-28T09:10:34.135Z,75.51
2017-05-28T09:11:35.556Z,76.76
2017-05-28T09:12:36.975Z,76.67
2017-05-28T09:13:38.395Z,75.55
2017-05-28T09:14:39.816Z,73.91
2017-05-28T09:15:41.232Z,74.01
2017-05-28T09:16:43.906Z,72.50
2017-05-28T09:17:45.331Z,71.28
2017-05-28T09:18:46.754Z,70.16
2017-05-28T09:19:48.178Z,68.62
2017-05-28T09:20:49.601Z,68.55
2017-05-28T09:21:51.240Z,67.88
2017-05-28T09:22:53.297Z,67.49
2017-05-28T09:23:54.712Z,67.01
2017-05-28T09:24:56.149Z,67.01
2017-05-28T09:25:58.193Z,69.10
2017-05-28T09:26:59.612Z,71.19
2017-05-28T09:28:01.033Z,73.18
2017-05-28T09:29:02.488Z,72.83
2017-05-28T09:30:03.923Z,72.79
2017-05-28T09:31:05.502Z,73.89
2017-05-28T09:32:06.979Z,74.05
2017-05-28T09:33:08.489Z,74.43
2017-05-28T09:34:10.061Z,74.14
2017-05-28T09:35:11.536Z,75.30
2017-05-28T09:36:12.961Z,75.97
2017-05-28T09:37:14.389Z,75.97
2017-05-28T09:38:15.809Z,75.59
2017-05-28T09:39:17.284Z,76.51
2017-05-28T09:40:21.945Z,76.90
2017-05-28T09:41:23.538Z,75.74
2017-05-28T09:42:25.459Z,77.00
2017-05-28T09:43:26.828Z,77.67
2017-05-28T09:44:28.886Z,76.55
2017-05-28T09:45:30.707Z,76.36
2017-05-28T09:46:33.777Z,77.13
2017-05-28T09:47:35.215Z,76.93
2017-05-28T09:48:36.895Z,77.03
2017-05-28T09:49:38.428Z,77.03
2017-05-28T09:50:39.932Z,77.61
2017-05-28T09:51:42.139Z,77.23
2017-05-28T09:52:43.568Z,76.45
2017-05-28T09:53:44.993Z,75.88
2017-05-28T09:54:46.448Z,76.55
2017-05-28T09:55:47.862Z,76.45
2017-05-28T09:56:49.288Z,75.88
2017-05-28T09:57:50.709Z,76.75
2017-05-28T09:58:52.129Z,75.78
2017-05-28T09:59:53.554Z,75.62
2017-05-28T10:00:54.973Z,76.20
2017-05-28T10:01:56.398Z,75.92
2017-05-28T10:02:57.820Z,76.01
2017-05-28T10:03:59.247Z,75.85
2017-05-28T10:05:01.211Z,76.50
2017-05-28T10:06:02.683Z,76.10
2017-05-28T10:07:04.142Z,75.95
2017-05-28T10:08:05.572Z,75.72
2017-05-28T10:09:07.011Z,75.53
2017-05-28T10:10:08.459Z,76.01
2017-05-28T10:11:09.887Z,75.92
2017-05-28T10:12:11.316Z,74.99
2017-05-28T10:13:12.774Z,74.31
2017-05-28T10:14:17.651Z,74.69
2017-05-28T10:15:22.093Z,74.69
2017-05-28T10:16:23.492Z,75.09
2017-05-28T10:17:25.005Z,74.89
2017-05-28T10:18:26.427Z,74.89
2017-05-28T10:19:27.853Z,74.41
2017-05-28T10:20:29.277Z,74.02
2017-05-28T10:21:30.706Z,74.60
2017-05-28T10:22:32.161Z,74.21
2017-05-28T10:23:33.594Z,74.31
2017-05-28T10:24:35.021Z,74.31
2017-05-28T10:25:38.262Z,73.93
2017-05-28T10:26:39.685Z,74.83
2017-05-28T10:27:41.117Z,74.83
2017-05-28T10:28:42.539Z,74.54
2017-05-28T10:29:44.029Z,74.44
2017-05-28T10:30:46.167Z,74.54
2017-05-28T10:31:48.683Z,74.35
2017-05-28T10:32:50.103Z,74.83
2017-05-28T10:33:51.537Z,74.54
2017-05-28T10:34:53.517Z,74.16
2017-05-28T10:35:55.236Z,74.29
2017-05-28T10:36:56.718Z,74.58
2017-05-28T10:37:58.160Z,74.87
2017-05-28T10:38:59.650Z,73.61
2017-05-28T10:40:01.158Z,73.80
2017-05-28T10:41:02.579Z,74.77
2017-05-28T10:42:04.018Z,73.52
2017-05-28T10:43:05.481Z,73.22
2017-05-28T10:44:06.904Z,72.94
2017-05-28T10:45:08.430Z,72.64
2017-05-28T10:46:09.844Z,72.55
2017-05-28T10:47:11.287Z,72.74
2017-05-28T10:48:12.700Z,73.03
2017-05-28T10:49:14.122Z,73.03
2017-05-28T10:50:15.715Z,74.00
2017-05-28T10:51:17.178Z,73.90
2017-05-28T10:52:18.607Z,74.87
2017-05-28T10:53:20.051Z,74.96
2017-05-28T10:54:21.467Z,74.77
2017-05-28T10:55:22.891Z,74.29
2017-05-28T10:56:24.334Z,74.00
2017-05-28T10:57:25.771Z,73.84
2017-05-28T10:58:27.203Z,73.84
2017-05-28T10:59:28.635Z,74.04
2017-05-28T11:00:32.615Z,72.68
2017-05-28T11:01:34.054Z,72.30
2017-05-28T11:02:35.484Z,71.62
2017-05-28T11:03:36.918Z,72.39
2017-05-28T11:04:38.394Z,74.04
2017-05-28T11:05:39.822Z,73.65
2017-05-28T11:06:41.258Z,72.81
2017-05-28T11:07:42.700Z,71.66
2017-05-28T11:08:44.123Z,73.10
2017-05-28T11:09:45.634Z,69.88
2017-05-28T11:10:47.680Z,70.07
2017-05-28T11:11:49.353Z,69.49
2017-05-28T11:12:50.790Z,70.10
2017-05-28T11:13:52.210Z,69.92
2017-05-28T11:14:53.644Z,70.78
2017-05-28T11:15:55.069Z,70.59
2017-05-28T11:16:56.500Z,70.88
2017-05-28T11:17:57.925Z,69.85
2017-05-28T11:18:59.374Z,69.08
2017-05-28T11:20:07.003Z,67.63
2017-05-28T11:21:08.442Z,68.49
2017-05-28T11:22:09.874Z,69.17
2017-05-28T11:23:11.324Z,72.17
2017-05-28T11:24:12.776Z,69.95
2017-05-28T11:25:14.202Z,70.72
2017-05-28T11:26:15.631Z,70.62
2017-05-28T11:27:17.087Z,70.04
2017-05-28T11:28:18.523Z,70.34
2017-05-28T11:29:19.958Z,69.56
2017-05-28T11:30:21.381Z,69.27
2017-05-28T11:31:22.799Z,68.88
2017-05-28T11:32:24.228Z,68.98
2017-05-28T11:33:25.668Z,68.49
2017-05-28T11:34:27.134Z,68.21
2017-05-28T11:35:28.563Z,65.69
2017-05-28T11:36:30.009Z,65.82
2017-05-28T11:37:31.442Z,66.27
2017-05-28T11:38:33.490Z,66.56
2017-05-28T11:39:34.919Z,65.92
2017-05-28T11:40:36.352Z,64.66
2017-05-28T11:41:37.795Z,64.95
2017-05-28T11:42:39.896Z,63.59
2017-05-28T11:43:41.315Z,63.98
2017-05-28T11:44:42.739Z,63.37
2017-05-28T11:45:44.166Z,63.40
2017-05-28T11:46:45.603Z,62.34
2017-05-28T11:47:49.199Z,62.34
2017-05-28T11:48:49.809Z,63.31
2017-05-28T11:49:51.247Z,63.59
2017-05-28T11:50:52.661Z,64.24
2017-05-28T11:51:54.107Z,64.82
2017-05-28T11:52:55.539Z,64.82
2017-05-28T11:53:56.966Z,65.69
2017-05-28T11:54:58.395Z,66.56
2017-05-28T11:55:59.813Z,65.50
2017-05-28T11:57:01.237Z,66.37
2017-05-28T11:58:02.676Z,66.60
2017-05-28T11:59:04.102Z,69.37
2017-05-28T12:00:05.531Z,65.50
2017-05-28T12:01:06.961Z,65.88
2017-05-28T12:02:09.093Z,68.43
2017-05-28T12:03:10.529Z,69.31
2017-05-28T12:04:11.947Z,69.31
2017-05-28T12:05:13.423Z,68.24
2017-05-28T12:06:14.844Z,69.11
2017-05-28T12:07:17.054Z,69.11
2017-05-28T12:08:18.476Z,69.34
2017-05-28T12:09:19.900Z,69.05
2017-05-28T12:10:21.797Z,67.50
2017-05-28T12:11:23.982Z,63.92
2017-05-28T12:12:25.404Z,63.34
2017-05-28T12:13:27.302Z,63.92
2017-05-28T12:14:29.102Z,63.92
2017-05-28T12:15:30.847Z,64.01
2017-05-28T12:16:32.584Z,63.72
2017-05-28T12:17:36.060Z,63.53
2017-05-28T12:18:42.091Z,63.62
2017-05-28T12:19:43.909Z,63.43
2017-05-28T12:20:50.512Z,63.62
2017-05-28T12:21:54.333Z,63.72
2017-05-28T12:22:56.098Z,63.62
2017-05-28T12:23:57.917Z,63.62
2017-05-28T12:25:00.738Z,63.53
2017-05-28T12:26:02.586Z,63.72
2017-05-28T12:27:04.347Z,63.53
2017-05-28T12:28:06.182Z,61.88
2017-05-28T12:29:07.893Z,62.66
2017-05-28T12:30:09.804Z,62.95
2017-05-28T12:31:11.597Z,63.04
2017-05-28T12:32:12.980Z,63.53
2017-05-28T12:33:17.242Z,63.43
2017-05-28T12:34:19.097Z,63.43
2017-05-28T12:35:20.519Z,63.24
2017-05-28T12:36:21.959Z,63.43
2017-05-28T12:37:23.375Z,63.34
2017-05-28T12:38:24.801Z,63.62
2017-05-28T12:39:26.238Z,63.04
2017-05-28T12:40:27.674Z,62.66
2017-05-28T12:41:29.095Z,62.56
2017-05-28T12:42:30.518Z,62.53
2017-05-28T12:43:31.950Z,62.43
2017-05-28T12:44:33.381Z,62.14
2017-05-28T12:45:34.811Z,62.43
2017-05-28T12:46:36.236Z,62.63
2017-05-28T12:47:37.660Z,61.95
2017-05-28T12:48:39.084Z,61.76
2017-05-28T12:49:40.502Z,61.66
2017-05-28T12:50:41.933Z,61.66
2017-05-28T12:51:43.367Z,61.66
2017-05-28T12:52:44.789Z,61.95
2017-05-28T12:53:46.214Z,61.95
2017-05-28T12:54:47.638Z,61.85
2017-05-28T12:55:49.060Z,62.04
2017-05-28T12:56:50.489Z,61.66
2017-05-28T12:57:51.907Z,61.95
2017-05-28T12:58:53.422Z,61.66
2017-05-28T12:59:54.846Z,61.66
2017-05-28T13:00:57.520Z,62.04
2017-05-28T13:01:58.944Z,61.36
2017-05-28T13:03:00.363Z,61.46
2017-05-28T13:04:01.791Z,61.46
2017-05-28T13:05:03.274Z,61.56
2017-05-28T13:06:04.721Z,61.56
2017-05-28T13:07:06.153Z,61.36
2017-05-28T13:08:07.602Z,60.98
2017-05-28T13:09:09.027Z,61.08
2017-05-28T13:10:10.449Z,60.88
2017-05-28T13:11:11.872Z,60.88
2017-05-28T13:12:13.315Z,60.69
2017-05-28T13:13:14.742Z,60.78
2017-05-28T13:14:16.174Z,61.08